Home > Products > Valid Products > TAF

000
FTUS43 KFSD 212344
TAFHON
TAF
KHON 212344Z 2200/2224 18007KT P6SM BKN120
     FM221600 16010KT P6SM SCT200=



000
FTUS43 KFSD 212344
TAFSUX
TAF
KSUX 212344Z 2200/2224 16010KT P6SM BKN120
     FM220400 16008KT P6SM OVC014
     FM220600 16008KT 3SM BR SCT003 OVC005
     FM220900 16006KT 1/2SM FG OVC003
     FM221300 16007KT 2SM BR SCT003 OVC005
     FM221600 17009KT P6SM SCT005
     FM221900 17010KT P6SM SCT200=



000
FTUS43 KFSD 212344
TAFFSD
TAF
KFSD 212344Z 2200/2224 19011KT P6SM BKN150
     FM221000 19005KT 3SM BR SCT003 BKN005
     FM221400 19006KT P6SM SCT005
     FM221800 17010KT P6SM SCT200=



000
FTUS43 KFSD 212344
TAFSUX
TAF
KSUX 212344Z 2200/2224 16010KT P6SM BKN120
     FM220400 16008KT P6SM OVC014
     FM220600 16008KT 3SM BR SCT003 OVC005
     FM220900 16006KT 1/2SM FG OVC003
     FM221300 16007KT 2SM BR SCT003 OVC005
     FM221600 17009KT P6SM SCT005
     FM221900 17010KT P6SM SCT200=



000
FTUS43 KFSD 211740
TAFFSD
TAF
KFSD 211740Z 2118/2218 18016G23KT P6SM BKN200
     FM212200 18011KT P6SM BKN120
     FM220200 17008KT P6SM BKN120=



000
FTUS43 KFSD 211740
TAFHON
TAF
KHON 211740Z 2118/2218 17012G18KT P6SM BKN200
     FM212200 18007KT P6SM OVC120
     FM220600 15010KT P6SM SCT200=



000
FTUS43 KFSD 211740
TAFSUX
TAF
KSUX 211740Z 2118/2218 17013G19KT P6SM BKN200
     FM220200 18011KT P6SM BKN200
     FM220400 19008KT P6SM BKN014
     FM220800 21007KT P6SM BKN025=



000
FTUS43 KFSD 211740
TAFSUX
TAF
KSUX 211740Z 2118/2218 17013G19KT P6SM BKN200
     FM220200 18011KT P6SM BKN200
     FM220400 19008KT P6SM BKN014
     FM220800 21007KT P6SM BKN025=



000
FTUS43 KFSD 211130
TAFSUX
TAF
KSUX 211130Z 2112/2212 16011KT P6SM SCT200
     FM211600 17013G19KT P6SM BKN200
     FM212200 18011KT P6SM OVC012
     FM220800 19008KT 5SM BR OVC010=



000
FTUS43 KFSD 211130
TAFHON
TAF
KHON 211130Z 2112/2212 16013G22KT P6SM SCT200
     FM211600 17011G17KT P6SM BKN200
     FM212200 18007KT P6SM OVC120
     FM220600 18005KT P6SM SCT200=



000
FTUS43 KFSD 211130
TAFFSD
TAF
KFSD 211130Z 2112/2212 18014KT P6SM SKC
     FM211500 18016G23KT P6SM BKN200
     FM212200 18011KT P6SM BKN120
     FM220200 18008KT P6SM OVC012=



000
FTUS43 KFSD 211130
TAFSUX
TAF
KSUX 211130Z 2112/2212 16011KT P6SM SCT200
     FM211600 17013G19KT P6SM BKN200
     FM212200 18011KT P6SM OVC012
     FM220800 19008KT 5SM BR OVC010=



000
FTUS43 KFSD 210841 AAA
TAFHON
TAF AMD
KHON 210841Z 2109/2206 16011G17KT P6SM SCT150
     FM211500 18013KT P6SM BKN150
     FM212200 18007KT P6SM BKN100=



000
FTUS43 KFSD 210522
TAFSUX
TAF
KSUX 210522Z 2106/2206 12006KT P6SM SCT017
     FM211000 14010KT P6SM SCT150
     FM211600 17013G19KT P6SM BKN150
     FM212200 17008KT P6SM BKN120
     FM220200 17008KT P6SM SCT008 BKN012=



000
FTUS43 KFSD 210522
TAFFSD
TAF
KFSD 210522Z 2106/2206 16007KT P6SM SCT015
     FM210800 17011KT P6SM SCT150
     FM211500 18015G22KT P6SM BKN150
     FM212200 18011KT P6SM BKN120=



000
FTUS43 KFSD 210522
TAFHON
TAF
KHON 210522Z 2106/2206 16010KT P6SM SCT150
     FM211500 18013KT P6SM BKN150
     FM212200 18007KT P6SM BKN100=



000
FTUS43 KFSD 210522
TAFSUX
TAF
KSUX 210522Z 2106/2206 12006KT P6SM SCT017
     FM211000 14010KT P6SM SCT150
     FM211600 17013G19KT P6SM BKN150
     FM212200 17008KT P6SM BKN120
     FM220200 17008KT P6SM SCT008 BKN012=



000
FTUS43 KFSD 210432 AAB
TAFHON
TAF AMD
KHON 210432Z 2105/2124 15006KT P6SM SCT015
     FM210600 16011KT P6SM SKC
     FM211500 18013G20KT P6SM FEW015 BKN120
     FM212100 18008KT P6SM FEW015 BKN120=



000
FTUS43 KFSD 210327 AAB
TAFSUX
TAF AMD
KSUX 210327Z 2103/2124 VRB03KT P6SM SKC
     FM210500 13008KT P6SM SKC
     FM211500 16012G18KT P6SM BKN150=



000
FTUS43 KFSD 210327 AAB
TAFSUX
TAF AMD
KSUX 210327Z 2103/2124 VRB03KT P6SM SKC
     FM210500 13008KT P6SM SKC
     FM211500 16012G18KT P6SM BKN150=



000
FTUS43 KFSD 210259 AAB
TAFFSD
TAF AMD
KFSD 210259Z 2103/2124 VRB03KT P6SM SKC
      TEMPO 2105/2107 BKN020
     FM210700 16008KT P6SM FEW015
     FM211200 18014G20KT P6SM SCT015 BKN150
     FM212100 18011KT P6SM SCT015 BKN120=



000
FTUS43 KFSD 210257 AAA
TAFHON
TAF AMD
KHON 210257Z 2103/2124 15006KT P6SM SKC
      TEMPO 2103/2105 BKN015
     FM210600 16011KT P6SM SKC
     FM211500 18013G20KT P6SM FEW015 BKN120
     FM212100 18008KT P6SM FEW015 BKN120=



000
FTUS43 KFSD 210252 AAA
TAFSUX
TAF AMD
KSUX 210252Z 2103/2124 VRB03KT P6SM SKC
      TEMPO 2103/2105 BKN020
     FM210500 13008KT P6SM SKC
     FM211500 16012G18KT P6SM SCT010 BKN150=



000
FTUS43 KFSD 202344
TAFSUX
TAF
KSUX 202344Z 2100/2124 VRB03KT P6SM SKC
     FM210200 12006KT P6SM BKN020
     FM210500 13008KT P6SM SCT020
     FM211500 16012G18KT P6SM SCT010 BKN150=



000
FTUS43 KFSD 202344
TAFHON
TAF
KHON 202344Z 2100/2124 15006KT P6SM SKC
     FM210200 15008KT P6SM BKN015
     FM210600 16011KT P6SM SCT015
     FM211500 18013G20KT P6SM FEW015 BKN120
     FM212100 18008KT P6SM FEW015 BKN120=



000
FTUS43 KFSD 202344
TAFFSD
TAF
KFSD 202344Z 2100/2124 VRB03KT P6SM SKC
     FM210400 15006KT P6SM BKN020
     FM210700 16008KT P6SM SCT015
     FM211200 18014G20KT P6SM SCT015 BKN150
     FM212100 18011KT P6SM SCT015 BKN120=



000
FTUS43 KFSD 202344
TAFSUX
TAF
KSUX 202344Z 2100/2124 VRB03KT P6SM SKC
     FM210200 12006KT P6SM BKN020
     FM210500 13008KT P6SM SCT020
     FM211500 16012G18KT P6SM SCT010 BKN150=



000
FTUS43 KFSD 201735 CCA
TAFSUX
TAF COR
KSUX 201735Z 2018/2118 28008KT P6SM BKN025
     FM201900 VRB04KT P6SM SCT040
     FM210000 13006KT P6SM SCT040 BKN150
     FM211400 16012KT P6SM SCT009 BKN120=



000
FTUS43 KFSD 201735 CCA
TAFSUX
TAF COR
KSUX 201735Z 2018/2118 28008KT P6SM BKN025
     FM201900 VRB04KT P6SM SCT040
     FM210000 13006KT P6SM SCT040 BKN150
     FM211400 16012KT P6SM SCT009 BKN120=



000
FTUS43 KFSD 201734
TAFFSD
TAF
KFSD 201734Z 2018/2118 27005KT P6SM BKN035
     FM210000 17005KT P6SM SCT035
     FM210600 18008KT P6SM SCT030 BKN150
     FM211300 18013KT P6SM BKN015=



000
FTUS43 KFSD 201734
TAFSUX
TAF
KSUX 201734Z 2018/2118 28008KT P6SM BKN035
     FM202100 VRB04KT P6SM SCT040
     FM210000 13006KT P6SM SCT040 BKN150
     FM211400 16012KT P6SM SCT009 BKN120=



000
FTUS43 KFSD 201734
TAFHON
TAF
KHON 201734Z 2018/2118 VRB05KT P6SM SKC
     FM210200 15007KT P6SM BKN025
     FM210500 16011KT P6SM OVC025
     FM211500 17010KT P6SM OVC015=



000
FTUS43 KFSD 201734
TAFSUX
TAF
KSUX 201734Z 2018/2118 28008KT P6SM BKN035
     FM202100 VRB04KT P6SM SCT040
     FM210000 13006KT P6SM SCT040 BKN150
     FM211400 16012KT P6SM SCT009 BKN120=



000
FTUS43 KFSD 201125
TAFHON
TAF
KHON 201125Z 2012/2112 28007KT P6SM SCT030
     FM201500 26004KT P6SM BKN035
     FM202100 17005KT P6SM SCT035
     FM210500 16011G16KT P6SM SCT030 BKN150=



000
FTUS43 KFSD 201125
TAFSUX
TAF
KSUX 201125Z 2012/2112 28008KT P6SM BKN035
     FM202100 VRB04KT P6SM SCT040
     FM210000 13006KT P6SM SCT040 BKN150=



000
FTUS43 KFSD 201125
TAFFSD
TAF
KFSD 201125Z 2012/2112 28007KT P6SM SCT030
     FM201600 27005KT P6SM BKN035
     FM210000 17005KT P6SM SCT035
     FM210600 18011KT P6SM SCT030 BKN150=



000
FTUS43 KFSD 201125
TAFSUX
TAF
KSUX 201125Z 2012/2112 28008KT P6SM BKN035
     FM202100 VRB04KT P6SM SCT040
     FM210000 13006KT P6SM SCT040 BKN150=



000
FTUS43 KFSD 200830 AAA
TAFSUX
TAF AMD
KSUX 200830Z 2009/2106 28006KT P6SM BKN035
     FM201800 VRB04KT P6SM SCT040
     FM210000 17006KT P6SM BKN040=



000
FTUS43 KFSD 200542 CCA
TAFSUX
TAF COR
KSUX 200542Z 2006/2106 30009KT P6SM BKN030
     FM200900 28006KT P6SM SCT035
     FM201800 VRB04KT P6SM SCT040
     FM210000 17006KT P6SM BKN040=



000
FTUS43 KFSD 200542 CCA
TAFSUX
TAF COR
KSUX 200542Z 2006/2106 30009KT P6SM BKN030
     FM200900 28006KT P6SM SCT035
     FM201800 VRB04KT P6SM SCT040
     FM210000 17006KT P6SM BKN040=



000
FTUS43 KFSD 200520
TAFSUX
TAF
KSUX 200520Z 2006/2106 34006KT P6SM BKN030
     FM200900 32006KT P6SM SCT035
     FM201800 VRB04KT P6SM SCT040
     FM210000 17006KT P6SM BKN040=



000
FTUS43 KFSD 200520
TAFFSD
TAF
KFSD 200520Z 2006/2106 29006KT P6SM SCT030
     FM201800 VRB04KT P6SM SCT040
     FM210000 17006KT P6SM BKN040=



000
FTUS43 KFSD 200520
TAFHON
TAF
KHON 200520Z 2006/2106 27006KT P6SM SCT030
     FM201900 VRB04KT P6SM SCT040
     FM210000 17006KT P6SM BKN040=



000
FTUS43 KFSD 200520
TAFSUX
TAF
KSUX 200520Z 2006/2106 34006KT P6SM BKN030
     FM200900 32006KT P6SM SCT035
     FM201800 VRB04KT P6SM SCT040
     FM210000 17006KT P6SM BKN040=



000
FTUS43 KFSD 200452 AAA
TAFSUX
TAF AMD
KSUX 200452Z 2005/2024 30010KT P6SM BKN030
     FM200630 30007KT P6SM SCT030
     FM201200 VRB04KT P6SM SCT035
     FM201800 33005KT P6SM SCT250=



000
FTUS43 KFSD 200452 AAA
TAFSUX
TAF AMD
KSUX 200452Z 2005/2024 30010KT P6SM BKN030
     FM200630 30007KT P6SM SCT030
     FM201200 VRB04KT P6SM SCT035
     FM201800 33005KT P6SM SCT250=



000
FTUS43 KFSD 192320
TAFFSD
TAF
KFSD 192320Z 2000/2024 29009KT P6SM BKN035
     FM200600 30007KT P6SM SCT035
     FM201200 VRB04KT P6SM SCT035
     FM201800 21005KT P6SM SCT250=



000
FTUS43 KFSD 192320
TAFSUX
TAF
KSUX 192320Z 2000/2024 30010KT P6SM OVC035
     FM200600 30007KT P6SM SCT035
     FM201200 VRB04KT P6SM SCT035
     FM201800 33005KT P6SM SCT250=



000
FTUS43 KFSD 192320
TAFSUX
TAF
KSUX 192320Z 2000/2024 30010KT P6SM OVC035
     FM200600 30007KT P6SM SCT035
     FM201200 VRB04KT P6SM SCT035
     FM201800 33005KT P6SM SCT250=



000
FTUS43 KFSD 192320
TAFHON
TAF
KHON 192320Z 2000/2024 30010KT P6SM BKN035
     FM200300 30006KT P6SM BKN035
     FM201200 33004KT P6SM SCT030
     FM201800 17005KT P6SM SCT250=



000
FTUS43 KFSD 191840 AAA
TAFSUX
TAF AMD
KSUX 191840Z 1919/2018 31018G25KT P6SM BKN035
     FM192200 30010KT P6SM BKN030
     FM200200 30005KT P6SM SCT030
     FM201200 33004KT P6SM SCT030=



000
FTUS43 KFSD 191840 AAA
TAFSUX
TAF AMD
KSUX 191840Z 1919/2018 31018G25KT P6SM BKN035
     FM192200 30010KT P6SM BKN030
     FM200200 30005KT P6SM SCT030
     FM201200 33004KT P6SM SCT030=



000
FTUS43 KFSD 191720
TAFFSD
TAF
KFSD 191720Z 1918/2018 31017KT P6SM OVC035
     FM192300 29009KT P6SM BKN030
     FM200600 30006KT P6SM SCT030
     FM201200 32004KT P6SM SCT030=



000
FTUS43 KFSD 191720
TAFSUX
TAF
KSUX 191720Z 1918/2018 33018G24KT P6SM OVC030
     FM192200 30010KT P6SM BKN030
     FM200200 30005KT P6SM BKN030
     FM201200 33004KT P6SM SCT030=



000
FTUS43 KFSD 191720
TAFSUX
TAF
KSUX 191720Z 1918/2018 33018G24KT P6SM OVC030
     FM192200 30010KT P6SM BKN030
     FM200200 30005KT P6SM BKN030
     FM201200 33004KT P6SM SCT030=



000
FTUS43 KFSD 191720
TAFHON
TAF
KHON 191720Z 1918/2018 32018KT P6SM BKN035 OVC045
     FM192200 30010KT P6SM BKN030
     FM200100 30006KT P6SM SCT030
     FM201200 33004KT P6SM SCT030=



000
FTUS43 KFSD 191524 AAA
TAFSUX
TAF AMD
KSUX 191524Z 1915/2012 33018G24KT P6SM OVC030
     FM192200 30010KT P6SM BKN030
     FM200200 30005KT P6SM BKN030=



000
FTUS43 KFSD 191524 AAA
TAFHON
TAF AMD
KHON 191524Z 1915/2012 32018KT P6SM BKN035 OVC045
     FM192200 30010KT P6SM BKN030
     FM200100 30006KT P6SM SCT030=



000
FTUS43 KFSD 191524 AAA
TAFFSD
TAF AMD
KFSD 191524Z 1915/2012 31017KT P6SM OVC035
     FM192300 29009KT P6SM BKN030
     FM200600 30006KT P6SM SCT030=



000
FTUS43 KFSD 191120
TAFSUX
TAF
KSUX 191120Z 1912/2012 32017G26KT P6SM OVC030
     FM192200 30010KT P6SM BKN030
     FM200200 30005KT P6SM BKN030=



000
FTUS43 KFSD 191120
TAFSUX
TAF
KSUX 191120Z 1912/2012 32017G26KT P6SM OVC030
     FM192200 30010KT P6SM BKN030
     FM200200 30005KT P6SM BKN030=



000
FTUS43 KFSD 191120
TAFFSD
TAF
KFSD 191120Z 1912/2012 31016G25KT P6SM OVC030
     FM192300 29009KT P6SM BKN030
     FM200600 30006KT P6SM SCT030=



000
FTUS43 KFSD 191120
TAFHON
TAF
KHON 191120Z 1912/2012 31016G25KT P6SM OVC030
     FM192200 30010KT P6SM BKN030
     FM200100 30006KT P6SM SCT030=



000
FTUS43 KFSD 190521
TAFFSD
TAF
KFSD 190521Z 1906/2006 27010KT P6SM OVC035
     FM190700 31020G30KT P6SM SCT025 OVC035
     FM190900 31014G25KT P6SM OVC025
     FM200000 31008KT P6SM SCT035=



000
FTUS43 KFSD 190521
TAFHON
TAF
KHON 190521Z 1906/2006 32020G32KT P6SM OVC025
     FM191200 32014G25KT P6SM OVC025
     FM192200 31010KT P6SM SCT035=



000
FTUS43 KFSD 190521
TAFSUX
TAF
KSUX 190521Z 1906/2006 29015KT P6SM BKN070
     FM190800 31018G30KT P6SM BKN035
     FM191000 31014G25KT P6SM OVC025
     FM200000 28007KT P6SM BKN035=



000
FTUS43 KFSD 190521
TAFSUX
TAF
KSUX 190521Z 1906/2006 29015KT P6SM BKN070
     FM190800 31018G30KT P6SM BKN035
     FM191000 31014G25KT P6SM OVC025
     FM200000 28007KT P6SM BKN035=



000
FTUS43 KFSD 190349 AAC
TAFFSD
TAF AMD
KFSD 190349Z 1904/1924 27010KT P6SM OVC035
     FM190700 31020G33KT P6SM SCT025 OVC035
     FM190900 31018G30KT P6SM OVC025
     FM191900 31012KT P6SM SCT035=



000
FTUS43 KFSD 190346 AAB
TAFHON
TAF AMD
KHON 190346Z 1904/1924 32020G30KT P6SM SCT020 OVC040
     FM190500 32020G35KT P6SM OVC025
     FM191900 31012KT P6SM SCT035=



000
FTUS43 KFSD 190202 AAA
TAFHON
TAF AMD
KHON 190202Z 1902/1924 28013KT P6SM BKN035
     FM190400 32018G26KT P6SM OVC025
     FM191900 31012KT P6SM SCT035=



    US Dept of Commerce
    National Oceanic and Atmospheric Administration
    National Weather Service
    1325 East West Highway
    Silver Spring, MD 20910
    Page Author: NWS Internet Services Team
Disclaimer
Information Quality
Credits
Glossary
Privacy Policy
Freedom of Information Act (FOIA)
About Us
Career Opportunities